createdAt,value
2023-03-06T00:01:08.357Z,79.14
2023-03-06T00:04:10.993Z,78.31
2023-03-06T00:07:13.985Z,77.65
2023-03-06T00:10:20.097Z,79.01
2023-03-06T00:13:26.918Z,80.44
2023-03-06T00:16:29.669Z,78.31
2023-03-06T00:19:32.399Z,80.12
2023-03-06T00:22:35.152Z,80.40
2023-03-06T00:25:38.958Z,80.31
2023-03-06T00:28:41.903Z,81.63
2023-03-06T00:31:47.979Z,81.74
2023-03-06T00:34:54.450Z,79.66
2023-03-06T00:37:59.843Z,81.45
2023-03-06T00:41:13.411Z,81.23
2023-03-06T00:44:16.088Z,81.98
2023-03-06T00:47:19.606Z,82.22
2023-03-06T00:50:22.289Z,81.81
2023-03-06T00:53:24.983Z,82.81
2023-03-06T00:56:27.666Z,82.63
2023-03-06T00:59:30.306Z,83.05
2023-03-06T01:02:33.117Z,82.51
2023-03-06T01:05:37.711Z,82.18
2023-03-06T01:08:40.317Z,82.16
2023-03-06T01:11:43.172Z,84.31
2023-03-06T01:14:45.899Z,84.28
2023-03-06T01:17:49.022Z,82.57
2023-03-06T01:20:51.710Z,83.54
2023-03-06T01:23:54.345Z,82.57
2023-03-06T01:26:57.331Z,82.37
2023-03-06T01:30:00.034Z,83.15
2023-03-06T01:33:05.743Z,81.33
2023-03-06T01:36:11.150Z,82.36
2023-03-06T01:39:13.886Z,81.27
2023-03-06T01:42:16.747Z,81.54
2023-03-06T01:45:25.486Z,81.87
2023-03-06T01:48:28.280Z,82.18
2023-03-06T01:51:36.374Z,81.87
2023-03-06T01:54:45.665Z,82.23
2023-03-06T01:57:53.058Z,78.57
2023-03-06T02:00:55.637Z,77.79
2023-03-06T02:03:58.732Z,76.15
2023-03-06T02:07:01.671Z,73.02
2023-03-06T02:10:05.472Z,72.67
2023-03-06T02:13:08.146Z,72.11
2023-03-06T02:16:11.787Z,71.12
2023-03-06T02:19:46.607Z,71.44
2023-03-06T02:22:52.866Z,71.13
2023-03-06T02:25:56.094Z,70.20
2023-03-06T02:28:59.492Z,71.07
2023-03-06T02:32:02.275Z,70.15
2023-03-06T02:35:05.257Z,70.69
2023-03-06T02:38:12.609Z,70.17
2023-03-06T02:41:18.787Z,70.14
2023-03-06T02:44:23.186Z,69.80
2023-03-06T02:47:25.863Z,70.97
2023-03-06T02:50:28.612Z,71.52
2023-03-06T02:53:31.421Z,70.71
2023-03-06T02:56:34.079Z,71.32
2023-03-06T02:59:36.764Z,71.49
2023-03-06T03:02:39.883Z,71.68
2023-03-06T03:05:42.549Z,72.25
2023-03-06T03:08:45.198Z,73.04
2023-03-06T03:11:47.813Z,75.27
2023-03-06T03:14:50.431Z,72.82
2023-03-06T03:17:56.226Z,72.83
2023-03-06T03:20:59.453Z,73.78
2023-03-06T03:24:02.098Z,73.41
2023-03-06T03:27:07.657Z,73.93
2023-03-06T03:30:11.433Z,74.36
2023-03-06T03:33:14.042Z,74.29
2023-03-06T03:36:16.677Z,75.43
2023-03-06T03:39:20.052Z,74.87
2023-03-06T03:42:25.994Z,75.14
2023-03-06T03:45:28.670Z,75.96
2023-03-06T03:48:32.013Z,75.81
2023-03-06T03:51:34.714Z,75.91
2023-03-06T03:54:37.815Z,76.62
2023-03-06T03:57:40.459Z,76.72
2023-03-06T04:00:43.156Z,77.31
2023-03-06T04:03:46.069Z,77.35
2023-03-06T04:06:48.939Z,77.85
2023-03-06T04:09:51.559Z,77.68
2023-03-06T04:12:54.246Z,78.84
2023-03-06T04:15:57.011Z,78.80
2023-03-06T04:18:59.734Z,79.53
2023-03-06T04:22:04.550Z,78.90
2023-03-06T04:25:07.542Z,79.42
2023-03-06T04:28:10.843Z,79.71
2023-03-06T04:31:13.750Z,79.99
2023-03-06T04:34:16.544Z,79.97
2023-03-06T04:37:24.991Z,80.51
2023-03-06T04:40:29.248Z,80.74
2023-03-06T04:43:32.014Z,80.87
2023-03-06T04:46:35.550Z,81.18
2023-03-06T04:49:38.502Z,81.89
2023-03-06T04:52:41.163Z,81.61
2023-03-06T04:55:43.933Z,81.62
2023-03-06T04:58:46.597Z,82.24
2023-03-06T05:01:49.783Z,82.32
2023-03-06T05:04:52.598Z,82.54
2023-03-06T05:07:55.539Z,82.31
2023-03-06T05:11:00.546Z,84.05
2023-03-06T05:14:03.145Z,83.33
2023-03-06T05:17:05.926Z,84.39
2023-03-06T05:20:10.503Z,84.29
2023-03-06T05:23:13.665Z,84.09
2023-03-06T05:26:16.966Z,86.60
2023-03-06T05:29:20.045Z,87.78
2023-03-06T05:32:22.935Z,88.01
2023-03-06T05:35:25.850Z,87.80
2023-03-06T05:38:29.049Z,89.63
2023-03-06T05:41:31.708Z,89.62
2023-03-06T05:44:35.532Z,89.33
2023-03-06T05:47:38.202Z,89.46
2023-03-06T05:50:40.810Z,89.59
2023-03-06T05:53:43.625Z,91.02
2023-03-06T05:56:46.206Z,90.81
2023-03-06T05:59:50.337Z,90.95
2023-03-06T06:02:53.170Z,93.07
2023-03-06T06:05:55.794Z,91.94
2023-03-06T06:08:58.522Z,92.85
2023-03-06T06:12:03.860Z,93.72
2023-03-06T06:15:07.421Z,93.01
2023-03-06T06:18:10.079Z,92.24
2023-03-06T06:21:14.796Z,93.30
2023-03-06T06:24:20.918Z,94.38
2023-03-06T06:27:23.564Z,94.77
2023-03-06T06:30:26.259Z,92.59
2023-03-06T06:33:29.121Z,91.94
2023-03-06T06:36:32.610Z,91.77
2023-03-06T06:39:35.494Z,91.69
2023-03-06T06:42:40.083Z,91.24
2023-03-06T06:45:47.305Z,91.05
2023-03-06T06:48:54.757Z,92.55
2023-03-06T06:51:57.737Z,91.52
2023-03-06T06:55:00.404Z,91.77
2023-03-06T06:58:03.080Z,92.90
2023-03-06T07:01:08.635Z,94.12
2023-03-06T07:04:13.282Z,93.26
2023-03-06T07:07:16.065Z,92.59
2023-03-06T07:10:20.737Z,93.88
2023-03-06T07:13:23.818Z,93.83
2023-03-06T07:16:29.709Z,93.94
2023-03-06T07:19:33.159Z,92.88
2023-03-06T07:22:48.654Z,92.74
2023-03-06T07:25:54.882Z,92.10
2023-03-06T07:29:00.679Z,92.00
2023-03-06T07:32:03.456Z,92.04
2023-03-06T07:35:19.817Z,90.83
2023-03-06T07:38:23.057Z,90.00
2023-03-06T07:41:25.775Z,90.50
2023-03-06T07:44:28.737Z,88.33
2023-03-06T07:47:31.523Z,89.65
2023-03-06T07:50:35.252Z,89.88
2023-03-06T07:53:38.281Z,88.10
2023-03-06T07:56:40.933Z,88.61
2023-03-06T07:59:43.539Z,89.65
2023-03-06T08:02:47.008Z,89.66
2023-03-06T08:05:49.814Z,89.76
2023-03-06T08:08:53.956Z,89.34
2023-03-06T08:11:56.799Z,89.24
2023-03-06T08:14:59.439Z,88.92
2023-03-06T08:18:03.991Z,89.47
2023-03-06T08:21:06.798Z,89.57
2023-03-06T08:24:09.515Z,89.40
2023-03-06T08:27:12.171Z,89.78
2023-03-06T08:30:18.081Z,90.05
2023-03-06T08:33:20.825Z,88.89
2023-03-06T08:36:24.183Z,89.73
2023-03-06T08:39:26.851Z,90.13
2023-03-06T08:42:29.404Z,88.69
2023-03-06T08:45:32.033Z,89.61
2023-03-06T08:48:34.737Z,88.22
2023-03-06T08:51:37.571Z,88.25
2023-03-06T08:54:40.282Z,88.87
2023-03-06T08:57:42.917Z,89.10
2023-03-06T09:00:45.947Z,88.95
2023-03-06T09:03:49.242Z,89.23
2023-03-06T09:06:53.934Z,87.76
2023-03-06T09:09:58.329Z,88.69
2023-03-06T09:13:04.034Z,87.81
2023-03-06T09:16:07.648Z,88.01
2023-03-06T09:19:10.586Z,87.55
2023-03-06T09:22:13.263Z,88.14
2023-03-06T09:25:20.576Z,86.90
2023-03-06T09:28:26.998Z,87.46
2023-03-06T09:31:31.807Z,85.59
2023-03-06T09:34:34.474Z,85.92
2023-03-06T09:37:41.099Z,87.29
2023-03-06T09:40:52.683Z,87.12
2023-03-06T09:44:08.818Z,86.80
2023-03-06T09:47:28.831Z,86.43
2023-03-06T09:50:46.125Z,86.41
2023-03-06T09:54:06.999Z,86.42
2023-03-06T09:57:27.564Z,83.58
2023-03-06T10:00:34.609Z,83.95
2023-03-06T10:03:48.551Z,83.18
2023-03-06T10:06:56.429Z,83.44
2023-03-06T10:10:05.028Z,81.73
2023-03-06T10:13:15.550Z,84.12
2023-03-06T10:16:30.281Z,83.03
2023-03-06T10:19:42.713Z,83.32
2023-03-06T10:23:01.055Z,82.59
2023-03-06T10:26:40.100Z,82.66
2023-03-06T10:30:06.948Z,82.80
2023-03-06T10:33:36.565Z,83.32
2023-03-06T10:36:42.407Z,82.77
2023-03-06T10:39:50.244Z,82.68
2023-03-06T10:43:10.624Z,82.85
2023-03-06T10:46:30.460Z,82.37
2023-03-06T10:49:37.535Z,81.55
2023-03-06T10:52:40.356Z,81.58
2023-03-06T10:55:51.636Z,81.14
2023-03-06T10:59:23.147Z,80.48
2023-03-06T11:02:30.238Z,79.88
2023-03-06T11:05:33.014Z,79.88
2023-03-06T11:08:39.201Z,78.36
2023-03-06T11:11:42.222Z,78.04
2023-03-06T11:14:45.022Z,77.84
2023-03-06T11:17:57.904Z,75.58
2023-03-06T11:21:07.386Z,74.68
2023-03-06T11:24:17.046Z,74.29
2023-03-06T11:27:34.642Z,77.10
2023-03-06T11:30:47.824Z,76.27
2023-03-06T11:34:09.657Z,75.49
2023-03-06T11:37:23.200Z,75.97
2023-03-06T11:40:45.252Z,75.63
2023-03-06T11:44:04.647Z,75.51
2023-03-06T11:47:42.877Z,75.15
2023-03-06T11:50:53.265Z,76.14
2023-03-06T11:53:59.222Z,74.56
2023-03-06T11:57:05.970Z,73.38
2023-03-06T12:00:14.240Z,73.14
2023-03-06T12:03:39.971Z,71.71
2023-03-06T12:07:01.124Z,71.07
2023-03-06T12:10:31.037Z,71.54
2023-03-06T12:13:47.911Z,71.01
2023-03-06T12:17:05.860Z,72.74
2023-03-06T12:20:29.192Z,72.69
2023-03-06T12:24:03.918Z,71.96
2023-03-06T12:27:26.001Z,72.44
2023-03-06T12:30:36.308Z,71.88
2023-03-06T12:34:14.703Z,72.25
2023-03-06T12:37:33.944Z,71.30
2023-03-06T12:41:01.946Z,72.34
2023-03-06T12:44:04.621Z,73.13
2023-03-06T12:47:12.922Z,72.37
2023-03-06T12:50:33.991Z,73.27
2023-03-06T12:53:36.959Z,72.72
2023-03-06T12:56:40.950Z,72.49
2023-03-06T12:59:48.719Z,72.49
2023-03-06T13:02:55.589Z,73.12
2023-03-06T13:06:32.449Z,73.27
2023-03-06T13:09:55.967Z,73.40
2023-03-06T13:13:05.209Z,73.60
2023-03-06T13:16:16.519Z,74.17
2023-03-06T13:19:26.469Z,73.67
2023-03-06T13:22:33.104Z,74.21
2023-03-06T13:25:37.674Z,74.95
2023-03-06T13:28:50.404Z,75.40
2023-03-06T13:31:53.039Z,75.20
2023-03-06T13:34:55.815Z,75.85
2023-03-06T13:37:59.969Z,76.73
2023-03-06T13:41:21.197Z,76.88
2023-03-06T13:44:23.833Z,77.39
2023-03-06T13:47:31.947Z,76.96
2023-03-06T13:50:40.543Z,77.30
2023-03-06T13:54:01.690Z,77.39
2023-03-06T13:57:22.635Z,77.08
2023-03-06T14:00:47.350Z,76.93
2023-03-06T14:04:01.001Z,77.81
2023-03-06T14:07:24.636Z,78.01
2023-03-06T14:10:31.002Z,77.70
2023-03-06T14:13:47.129Z,77.61
2023-03-06T14:16:53.717Z,78.07
2023-03-06T14:20:00.236Z,78.70
2023-03-06T14:23:32.544Z,78.07
2023-03-06T14:26:42.062Z,78.45
2023-03-06T14:29:46.720Z,78.26
2023-03-06T14:32:54.497Z,78.37
2023-03-06T14:36:00.366Z,78.98
2023-03-06T14:39:09.006Z,79.02
2023-03-06T14:42:24.926Z,78.79
2023-03-06T14:45:31.994Z,79.25
2023-03-06T14:48:42.999Z,79.03
2023-03-06T14:51:52.250Z,79.10
2023-03-06T14:54:55.000Z,79.13
2023-03-06T14:58:03.195Z,79.03
2023-03-06T15:01:09.107Z,78.94
2023-03-06T15:04:29.373Z,79.21
2023-03-06T15:07:33.016Z,79.36
2023-03-06T15:10:37.457Z,79.18
2023-03-06T15:13:40.493Z,80.12
2023-03-06T15:16:43.160Z,79.58
2023-03-06T15:19:48.683Z,79.51
2023-03-06T15:22:51.370Z,79.47
2023-03-06T15:25:57.198Z,78.58
2023-03-06T15:29:22.088Z,79.30
2023-03-06T15:32:32.387Z,79.60
2023-03-06T15:35:37.918Z,79.42
2023-03-06T15:38:45.712Z,80.05
2023-03-06T15:41:48.425Z,79.83
2023-03-06T15:44:53.613Z,79.89
2023-03-06T15:47:57.320Z,80.33
2023-03-06T15:51:01.067Z,80.38
2023-03-06T15:54:11.842Z,80.86
2023-03-06T15:57:26.756Z,80.41
2023-03-06T16:00:34.499Z,81.08
2023-03-06T16:03:37.064Z,81.34
2023-03-06T16:06:43.828Z,80.89
2023-03-06T16:09:46.731Z,80.91
2023-03-06T16:12:52.959Z,80.84
2023-03-06T16:15:55.631Z,81.53
2023-03-06T16:19:13.983Z,82.05
2023-03-06T16:22:22.957Z,82.07
2023-03-06T16:25:27.937Z,82.76
2023-03-06T16:28:32.210Z,82.89
2023-03-06T16:31:34.990Z,83.11
2023-03-06T16:34:38.561Z,83.42
2023-03-06T16:37:45.323Z,83.25
2023-03-06T16:40:51.104Z,83.70
2023-03-06T16:43:54.882Z,84.57
2023-03-06T16:47:01.169Z,84.47
2023-03-06T16:50:04.597Z,84.57
2023-03-06T16:53:11.626Z,84.89
2023-03-06T16:56:17.845Z,85.65
2023-03-06T16:59:25.383Z,87.64
2023-03-06T17:02:28.286Z,86.43
2023-03-06T17:05:34.485Z,87.27
2023-03-06T17:08:38.656Z,87.72
2023-03-06T17:11:47.652Z,87.68
2023-03-06T17:14:50.805Z,87.40
2023-03-06T17:17:53.610Z,86.91
2023-03-06T17:20:56.719Z,86.95
2023-03-06T17:24:02.561Z,87.14
2023-03-06T17:27:05.359Z,87.91
2023-03-06T17:30:08.587Z,89.02
2023-03-06T17:33:12.456Z,89.46
2023-03-06T17:36:16.396Z,89.10
2023-03-06T17:39:23.159Z,89.41
2023-03-06T17:42:26.000Z,90.67
2023-03-06T17:45:29.698Z,89.86
2023-03-06T17:48:35.603Z,89.20
2023-03-06T17:51:39.854Z,90.19
2023-03-06T17:54:42.766Z,92.12
2023-03-06T17:57:45.415Z,91.63
2023-03-06T18:00:48.539Z,90.90
2023-03-06T18:03:51.511Z,89.86
2023-03-06T18:06:54.843Z,91.22
2023-03-06T18:10:07.110Z,90.06
2023-03-06T18:13:10.770Z,90.96
2023-03-06T18:16:15.868Z,91.45
2023-03-06T18:19:18.626Z,91.58
2023-03-06T18:22:24.761Z,92.04
2023-03-06T18:25:33.629Z,91.51
2023-03-06T18:28:36.536Z,90.71
2023-03-06T18:31:41.207Z,91.35
2023-03-06T18:34:44.199Z,91.88
2023-03-06T18:37:46.928Z,94.23
2023-03-06T18:40:49.917Z,94.40
2023-03-06T18:43:56.702Z,93.98
2023-03-06T18:46:59.340Z,92.81
2023-03-06T18:50:04.880Z,92.85
2023-03-06T18:53:08.385Z,92.24
2023-03-06T18:56:16.992Z,92.22
2023-03-06T18:59:20.517Z,92.54
2023-03-06T19:02:23.840Z,93.81
2023-03-06T19:05:26.718Z,93.81
2023-03-06T19:08:30.875Z,93.78
2023-03-06T19:11:35.213Z,93.00
2023-03-06T19:14:38.347Z,92.83
2023-03-06T19:17:41.250Z,92.72
2023-03-06T19:20:44.936Z,94.07
2023-03-06T19:23:48.746Z,95.49
2023-03-06T19:26:51.778Z,95.00
2023-03-06T19:29:54.811Z,95.60
2023-03-06T19:32:57.910Z,96.56
2023-03-06T19:36:02.537Z,97.45
2023-03-06T19:39:07.161Z,97.41
2023-03-06T19:42:12.846Z,96.74
2023-03-06T19:45:17.265Z,96.61
2023-03-06T19:48:22.582Z,96.58
2023-03-06T19:51:27.007Z,97.29
2023-03-06T19:54:34.253Z,97.82
2023-03-06T19:57:37.318Z,97.93
2023-03-06T20:00:41.739Z,97.38
2023-03-06T20:03:45.085Z,98.36
2023-03-06T20:06:50.634Z,98.65
2023-03-06T20:09:54.580Z,97.87
2023-03-06T20:12:57.614Z,97.54
2023-03-06T20:16:04.350Z,97.89
2023-03-06T20:19:08.808Z,98.18
2023-03-06T20:22:12.916Z,98.22
2023-03-06T20:25:16.170Z,98.27
2023-03-06T20:28:22.435Z,98.07
2023-03-06T20:31:28.525Z,98.46
2023-03-06T20:34:31.493Z,100.00
2023-03-06T20:37:34.631Z,99.48
2023-03-06T20:40:42.209Z,100.00
2023-03-06T20:43:45.618Z,100.00
2023-03-06T20:46:48.912Z,100.00
2023-03-06T20:49:51.957Z,100.00
2023-03-06T20:52:56.308Z,100.00
2023-03-06T20:55:59.324Z,100.00
2023-03-06T20:59:02.730Z,99.77
2023-03-06T21:02:10.405Z,100.00
2023-03-06T21:05:16.530Z,100.00
2023-03-06T21:08:19.526Z,100.00
2023-03-06T21:11:22.383Z,100.00
2023-03-06T21:14:25.069Z,100.00
2023-03-06T21:17:30.370Z,100.00
2023-03-06T21:20:33.884Z,100.00
2023-03-06T21:23:37.794Z,100.00
2023-03-06T21:26:40.790Z,100.00
2023-03-06T21:29:44.888Z,100.00
2023-03-06T21:32:47.721Z,100.00
2023-03-06T21:35:50.497Z,100.00
2023-03-06T21:38:55.058Z,100.00
2023-03-06T21:41:57.921Z,100.00
2023-03-06T21:45:00.514Z,100.00
2023-03-06T21:48:03.373Z,100.00
2023-03-06T21:51:21.050Z,100.00
2023-03-06T21:54:27.245Z,100.00
2023-03-06T21:57:30.423Z,100.00
2023-03-06T22:00:36.497Z,100.00
2023-03-06T22:03:42.065Z,100.00
2023-03-06T22:06:48.212Z,100.00
2023-03-06T22:09:53.807Z,100.00
2023-03-06T22:12:56.534Z,100.00
2023-03-06T22:15:59.197Z,100.00
2023-03-06T22:19:01.961Z,100.00
2023-03-06T22:22:05.004Z,100.00
2023-03-06T22:25:08.260Z,100.00
2023-03-06T22:28:10.959Z,100.00
2023-03-06T22:31:16.645Z,100.00
2023-03-06T22:34:19.264Z,100.00
2023-03-06T22:37:25.080Z,100.00
2023-03-06T22:40:27.844Z,100.00
2023-03-06T22:43:30.964Z,100.00
2023-03-06T22:46:33.883Z,100.00
2023-03-06T22:49:37.991Z,100.00
2023-03-06T22:52:40.976Z,100.00
2023-03-06T22:55:44.027Z,100.00
2023-03-06T22:58:47.438Z,100.00
2023-03-06T23:01:50.182Z,100.00
2023-03-06T23:04:53.524Z,100.00
2023-03-06T23:07:56.193Z,100.00
2023-03-06T23:10:58.846Z,100.00
2023-03-06T23:14:01.807Z,100.00
2023-03-06T23:17:05.019Z,100.00
2023-03-06T23:20:10.316Z,100.00
2023-03-06T23:23:13.047Z,100.00
2023-03-06T23:26:16.192Z,100.00
2023-03-06T23:29:19.011Z,100.00
2023-03-06T23:32:24.780Z,100.00
2023-03-06T23:35:27.407Z,100.00
2023-03-06T23:38:30.466Z,100.00
2023-03-06T23:41:33.424Z,100.00
2023-03-06T23:44:36.238Z,100.00
2023-03-06T23:47:38.799Z,100.00
2023-03-06T23:50:44.573Z,100.00
2023-03-06T23:53:48.375Z,100.00
2023-03-06T23:56:51.016Z,100.00
2023-03-06T23:59:53.647Z,100.00
